Latest Weather Observations for Badgerys Creek

IDN60901

Issued at 2:15 pm EST Thursday 21 August 2014 (issued every 10 minutes, with the page automatically refreshed every 10 minutes)

About weather observations | Map of Sydney area stations | Latest observations for Sydney area | Other Formats
Station Details ID: 067108 Name: BADGERYS CREEK AWS Lat: -33.90 Lon: 150.73 Height: 81.2 m
Data from the previous 72 hours. | See also: Recent months at Badgerys Creek
Date/Time
EST
Tmp

°C
App
Tmp
°C
Dew
Point
°C
Rel
Hum
%
Delta-T

°C
Wind Press
QNH
hPa
Press
MSL
hPa
Rain
since
9 am
mm
Dir
 
Spd
km/h
Gust
km/h
Spd
kts
Gust
kts
21/02:00pm 16.1 14.8 9.3 64 3.5 SSE 6 11 3 6 1027.2 1027.3 0.0
21/01:30pm 15.4 14.0 9.7 69 3.0 S 7 11 4 6 1027.4 - 0.0
21/01:00pm 15.1 13.3 10.9 76 2.2 SSW 11 17 6 9 1027.7 1027.8 0.0
21/12:30pm 15.4 14.0 10.8 74 2.4 S 9 13 5 7 1028.0 - 0.0
21/12:00pm 15.3 14.2 9.9 70 2.8 S 6 9 3 5 1028.4 1028.5 0.0
21/11:30am 15.1 13.7 9.5 69 2.9 SSE 7 17 4 9 1028.9 - 0.0
21/11:00am 14.8 13.2 10.2 74 2.4 SSE 9 13 5 7 1029.1 1029.2 0.0
21/10:30am 14.1 11.2 9.5 74 2.4 S 15 19 8 10 1029.3 - 0.0
21/10:00am 14.3 11.9 10.1 76 2.2 SSW 13 17 7 9 1029.4 1029.5 0.0
21/09:30am 13.2 11.3 8.9 75 2.2 SW 9 15 5 8 1029.4 - 0.0
21/09:00am 12.3 10.0 9.0 80 1.6 SW 11 15 6 8 1029.4 1029.5 0.0
21/08:30am 11.9 9.5 8.6 80 1.6 SW 11 15 6 8 1029.3 - 0.0
21/08:00am 10.4 7.4 7.5 82 1.4 SW 13 15 7 8 1029.0 1029.1 0.0
21/07:30am 9.3 7.4 7.4 88 0.9 S 7 9 4 5 1028.9 - 0.0
21/07:00am 8.9 7.0 6.7 86 1.0 S 6 7 3 4 1028.6 1028.7 0.0
21/06:30am 8.3 6.2 6.8 90 0.7 S 7 9 4 5 1028.3 - 0.0
21/06:00am 8.2 6.0 6.0 86 1.0 S 7 9 4 5 1028.0 1028.1 0.0
21/05:30am 8.7 6.8 6.5 86 1.0 S 6 7 3 4 1027.8 - 0.0
21/05:00am 8.6 7.3 6.1 84 1.1 S 2 6 1 3 1027.6 1027.7 0.0
21/04:30am 8.4 6.3 6.0 85 1.1 S 6 9 3 5 1027.6 - 0.0
21/04:00am 8.3 6.2 6.6 89 0.8 S 7 9 4 5 1027.3 1027.4 0.0
21/03:30am 7.8 5.6 6.3 90 0.7 S 7 9 4 5 1027.3 - 0.0
21/03:00am 6.8 4.2 6.1 95 0.3 S 9 9 5 5 1027.1 1027.2 0.0
21/02:30am 6.2 4.0 5.5 95 0.3 S 6 7 3 4 1027.1 - 0.0
21/02:00am 6.0 3.7 4.8 92 0.5 S 6 7 3 4 1027.1 1027.2 0.0
21/01:30am 6.9 4.5 5.2 89 0.8 S 7 7 4 4 1027.2 - 0.0
21/01:00am 7.2 4.9 5.7 90 0.7 S 7 9 4 5 1027.2 1027.3 0.0
21/12:30am 6.5 3.3 5.3 92 0.5 S 11 13 6 7 1027.2 - 0.0
21/12:00am 6.8 4.3 4.8 87 0.9 S 7 9 4 5 1027.3 1027.4 0.0
 
Date/Time
EST
Tmp

°C
App
Tmp
°C
Dew
Point
°C
Rel
Hum
%
Delta-T

°C
Wind Press
QNH
hPa
Press
MSL
hPa
Rain
since
9 am
mm
Dir
 
Spd
km/h
Gust
km/h
Spd
kts
Gust
kts
20/11:30pm 7.3 4.6 5.4 88 0.8 S 9 11 5 6 1027.2 - 0.0
20/11:00pm 7.6 4.9 5.7 88 0.9 S 9 9 5 5 1027.3 1027.4 0.0
20/10:30pm 7.8 5.5 5.6 86 1.0 S 7 7 4 4 1027.4 - 0.0
20/10:00pm 8.1 5.9 6.1 87 0.9 S 7 9 4 5 1027.3 1027.4 0.0
20/09:30pm 8.3 5.7 6.1 86 1.0 S 9 9 5 5 1027.3 - 0.0
20/09:00pm 8.6 6.4 6.4 86 1.0 S 7 9 4 5 1027.3 1027.4 0.0
20/08:30pm 9.3 7.2 6.7 84 1.2 S 7 9 4 5 1027.1 - 0.0
20/08:00pm 9.7 7.5 6.4 80 1.5 S 7 9 4 5 1026.8 1026.9 0.0
20/07:30pm 11.1 9.2 6.5 73 2.2 S 6 6 3 3 1026.7 - 0.0
20/07:00pm 12.0 9.9 6.7 70 2.5 S 7 9 4 5 1026.3 1026.4 0.0
20/06:30pm 12.3 10.4 6.8 69 2.6 S 6 11 3 6 1026.1 - 0.0
20/06:00pm 12.5 9.6 6.5 67 2.8 SSE 11 17 6 9 1025.8 1025.9 0.0
20/05:30pm 13.2 10.6 6.1 62 3.4 SE 9 15 5 8 1025.3 - 0.0
20/05:00pm 13.4 10.5 6.3 62 3.4 ESE 11 15 6 8 1024.9 1025.0 0.0
20/04:30pm 13.9 11.3 6.0 59 3.8 ESE 9 17 5 9 1024.6 - 0.0
20/04:00pm 14.4 11.1 6.3 58 3.9 ESE 13 20 7 11 1024.4 1024.5 0.0
20/03:30pm 16.2 13.2 7.7 57 4.3 E 13 17 7 9 1024.2 - 0.0
20/03:00pm 15.5 11.8 6.5 55 4.4 ESE 15 22 8 12 1024.0 1024.1 0.0
20/02:30pm 15.9 13.5 6.9 55 4.4 SE 9 13 5 7 1024.0 - 0.0
20/02:00pm 16.1 13.5 6.0 51 4.9 S 9 17 5 9 1023.8 1023.9 0.0
20/01:30pm 16.2 14.2 6.9 54 4.6 SSE 7 15 4 8 1023.9 - 0.0
20/01:00pm 15.6 12.7 6.6 55 4.4 SSE 11 19 6 10 1024.1 1024.2 0.0
20/12:30pm 16.4 14.3 6.8 53 4.7 SSW 7 15 4 8 1024.3 - 0.0
20/12:00pm 15.4 12.5 6.4 55 4.4 S 11 22 6 12 1024.7 1024.8 0.0
20/11:30am 15.3 12.0 6.6 56 4.3 S 13 22 7 12 1025.1 - 0.0
20/11:00am 14.6 10.5 6.4 58 3.9 S 17 26 9 14 1025.3 1025.4 0.0
20/10:30am 14.4 9.7 6.0 57 4.0 SW 20 32 11 17 1025.2 - 0.0
20/10:00am 14.1 9.7 6.7 61 3.6 SW 19 26 10 14 1025.3 1025.4 0.0
20/09:30am 13.2 8.7 6.8 65 3.1 SW 20 32 11 17 1025.3 - 0.0
20/09:00am 12.5 8.0 6.1 65 3.0 SSW 19 24 10 13 1025.4 1025.5 1.2
20/08:30am 12.7 8.7 6.5 66 3.0 SW 17 24 9 13 1025.1 - 1.2
20/08:00am 11.2 6.7 5.9 70 2.5 SW 19 24 10 13 1024.9 1025.0 1.2
20/07:30am 11.3 7.1 5.6 68 2.6 SW 17 24 9 13 1024.7 - 1.2
20/07:00am 10.6 7.1 5.6 71 2.3 WSW 13 17 7 9 1024.3 1024.4 1.2
20/06:30am 10.8 7.0 5.8 71 2.3 SW 15 26 8 14 1024.1 - 1.2
20/06:00am 10.2 6.8 5.8 74 2.0 WSW 13 17 7 9 1023.4 1023.5 1.2
20/05:30am 10.4 7.0 6.0 74 2.0 WSW 13 15 7 8 1023.3 - 1.2
20/05:00am 9.9 4.9 6.6 80 1.5 SW 22 35 12 19 1023.2 1023.3 1.2
20/04:30am 10.6 7.0 5.2 69 2.5 SW 13 19 7 10 1023.0 - 1.2
20/04:00am 10.3 6.7 5.1 70 2.4 WSW 13 17 7 9 1022.7 1022.7 1.2
20/03:30am 10.7 6.8 5.3 69 2.5 SW 15 20 8 11 1022.6 - 1.2
20/03:00am 9.8 6.2 5.0 72 2.2 WSW 13 17 7 9 1022.2 1022.2 1.2
20/02:30am 9.5 5.1 4.9 73 2.1 WSW 17 22 9 12 1022.0 - 1.2
20/02:00am 8.8 4.7 4.6 75 1.9 SW 15 19 8 10 1022.2 1022.2 1.2
20/01:30am 9.1 4.7 4.5 73 2.0 WSW 17 19 9 10 1022.2 - 1.2
20/01:00am 9.3 5.2 4.5 72 2.1 WSW 15 20 8 11 1022.2 1022.2 1.2
20/12:30am 10.0 5.6 4.6 69 2.4 SW 17 22 9 12 1022.2 - 1.2
20/12:00am 9.9 5.5 4.7 70 2.3 SW 17 20 9 11 1022.1 1022.1 1.2
 
Date/Time
EST
Tmp

°C
App
Tmp
°C
Dew
Point
°C
Rel
Hum
%
Delta-T

°C
Wind Press
QNH
hPa
Press
MSL
hPa
Rain
since
9 am
mm
Dir
 
Spd
km/h
Gust
km/h
Spd
kts
Gust
kts
19/11:30pm 10.1 6.5 5.1 71 2.3 SW 13 19 7 10 1022.1 - 1.2
19/11:00pm 10.6 6.3 5.4 70 2.4 SW 17 20 9 11 1022.0 1022.0 1.2
19/10:30pm 11.3 7.2 6.0 70 2.5 SW 17 22 9 12 1021.7 - 1.2
19/10:00pm 11.4 6.9 6.3 71 2.4 SSW 19 28 10 15 1021.7 1021.7 1.2
19/09:30pm 11.0 7.4 6.6 74 2.1 SW 15 19 8 10 1021.7 - 1.2
19/09:00pm 11.0 7.8 6.9 76 1.9 SW 13 19 7 10 1021.5 1021.5 1.2
19/08:30pm 11.1 8.0 7.2 77 1.9 WSW 13 17 7 9 1021.5 - 1.2
19/08:00pm 11.6 8.6 7.5 76 2.0 SW 13 19 7 10 1021.4 1021.4 1.2
19/07:30pm 11.9 8.4 7.4 74 2.2 SW 15 19 8 10 1021.0 - 1.2
19/07:00pm 11.4 8.7 7.3 76 2.0 SW 11 15 6 8 1020.8 1020.8 1.2
19/06:30pm 11.9 8.7 7.0 72 2.4 SW 13 20 7 11 1020.2 - 1.2
19/06:00pm 13.0 9.0 6.8 66 3.0 SSW 17 26 9 14 1019.8 1019.8 1.2
19/05:30pm 13.4 9.0 7.2 66 3.0 SSW 20 30 11 16 1019.2 - 1.2
19/05:00pm 13.8 8.1 8.2 69 2.8 SSW 28 41 15 22 1018.9 1018.9 1.2
19/04:30pm 14.3 9.4 8.5 68 2.9 S 24 37 13 20 1018.3 - 1.2
19/04:00pm 14.1 11.5 9.5 74 2.4 S 13 19 7 10 1017.9 1017.9 1.2
19/03:30pm 13.2 11.0 10.7 85 1.3 S 13 20 7 11 1017.7 - 1.0
19/03:00pm 13.4 8.3 9.1 75 2.2 SSE 26 41 14 22 1017.2 1017.3 0.4
19/02:30pm 16.1 12.0 8.6 61 3.8 SSW 20 32 11 17 1016.5 - 0.4
19/02:00pm 16.4 11.5 8.6 60 4.0 SSW 24 39 13 21 1016.4 1016.5 0.4
19/01:30pm 16.6 10.1 8.3 58 4.2 SSW 32 48 17 26 1016.1 - 0.4
19/01:06pm 16.9 11.4 9.1 60 4.1 SSW 28 54 15 29 1015.9 - 0.4
19/01:00pm 16.3 11.7 9.7 65 3.5 SSW 24 33 13 18 1016.1 1016.2 0.4
19/12:30pm 16.4 10.5 9.1 62 3.8 S 30 50 16 27 1016.1 - 0.4
19/12:29pm 16.6 10.8 9.5 63 3.7 S 30 48 16 26 1016.1 - 0.2
19/12:00pm 14.8 9.9 9.8 72 2.6 SSW 26 44 14 24 1016.4 1016.5 0.2
19/11:30am 16.6 12.3 10.7 68 3.2 S 24 37 13 20 1016.5 - 0.2
19/11:00am 14.0 9.9 11.3 84 1.4 SSW 24 37 13 20 1016.8 1016.9 0.2
19/10:49am 15.3 9.9 9.4 68 3.1 SSW 28 52 15 28 1016.6 - 0.0
19/10:30am 16.5 11.6 9.9 65 3.5 S 26 44 14 24 1016.4 - 0.0
19/10:00am 15.6 11.3 9.5 67 3.2 S 22 35 12 19 1016.2 1016.3 0.0
19/09:30am 14.6 11.0 10.0 74 2.4 SSW 19 28 10 15 1016.3 - 0.0
19/09:00am 14.2 10.0 9.8 75 2.3 SW 22 30 12 16 1016.3 1016.4 18.4
19/08:30am 13.3 10.7 10.8 85 1.3 SW 15 20 8 11 1015.9 - 18.4
19/08:00am 12.6 10.0 10.8 89 0.9 SW 15 20 8 11 1015.7 1015.8 18.4
19/07:30am 12.2 9.8 9.9 86 1.2 SW 13 19 7 10 1015.3 - 18.4
19/07:00am 12.2 8.4 9.8 85 1.2 SSW 20 32 11 17 1014.8 1014.9 18.4
19/06:30am 11.7 8.8 9.8 88 1.0 SW 15 17 8 9 1014.3 - 18.4
19/06:00am 11.9 8.7 9.8 87 1.1 SW 17 24 9 13 1014.0 1014.1 18.4
19/05:30am 12.0 8.9 10.4 90 0.8 SW 17 22 9 12 1013.9 - 18.2
19/05:00am 12.3 8.7 10.4 88 1.0 SW 20 32 11 17 1013.5 1013.6 18.2
19/04:30am 12.1 8.2 10.7 91 0.7 SW 22 33 12 18 1012.9 - 18.2
19/04:00am 12.1 9.1 10.7 91 0.7 SW 17 20 9 11 1012.6 1012.6 17.6
19/03:30am 12.0 8.4 10.6 91 0.7 SW 20 28 11 15 1012.3 - 17.2
19/03:00am 12.0 8.1 10.7 92 0.7 SW 22 32 12 17 1012.2 1012.2 17.2
19/02:30am 11.6 9.1 11.1 97 0.3 WSW 15 20 8 11 1011.9 - 16.4
19/02:00am 11.6 8.1 11.0 96 0.3 SW 20 28 11 15 1011.8 1011.8 16.2
19/01:30am 11.8 7.5 10.7 93 0.6 SW 24 30 13 16 1011.8 - 16.0
19/01:00am 11.9 7.9 10.6 92 0.7 SSW 22 32 12 17 1011.6 1011.6 14.0
19/12:30am 11.8 8.5 10.9 94 0.5 SW 19 28 10 15 1011.4 - 12.4
19/12:00am 11.7 7.8 10.9 95 0.4 SW 22 30 12 16 1011.2 1011.2 11.8
 
Date/Time
EST
Tmp

°C
App
Tmp
°C
Dew
Point
°C
Rel
Hum
%
Delta-T

°C
Wind Press
QNH
hPa
Press
MSL
hPa
Rain
since
9 am
mm
Dir
 
Spd
km/h
Gust
km/h
Spd
kts
Gust
kts
18/11:30pm 11.7 8.2 10.9 95 0.4 SW 20 28 11 15 1010.8 - 10.4
18/11:00pm 11.6 7.8 11.1 97 0.3 WSW 22 28 12 15 1010.7 1010.7 9.8
18/10:30pm 11.9 8.1 11.0 94 0.5 SW 22 33 12 18 1010.7 - 8.2
18/10:00pm 12.0 8.2 11.1 94 0.5 SW 22 30 12 16 1010.3 1010.3 7.6
18/09:30pm 11.8 7.9 10.9 94 0.5 WSW 22 32 12 17 1010.2 - 6.6
18/09:00pm 11.7 7.8 10.9 95 0.4 WSW 22 30 12 16 1009.9 1009.9 6.4
18/08:30pm 12.1 7.4 10.7 91 0.7 SW 26 35 14 19 1009.7 - 6.0
18/08:16pm 12.4 7.2 10.3 87 1.1 SW 28 46 15 25 1009.6 - 5.8
18/08:00pm 12.3 8.3 10.4 88 1.0 SW 22 28 12 15 1009.2 1009.2 5.6
18/07:30pm 13.0 7.7 9.8 81 1.6 SW 28 35 15 19 1008.8 - 5.0
18/07:00pm 13.4 8.0 9.6 78 2.0 SW 28 41 15 22 1008.5 1008.5 4.8
18/06:30pm 13.8 8.3 9.3 74 2.3 SW 28 41 15 22 1008.1 - 4.8
18/06:00pm 14.3 7.8 8.9 70 2.8 SW 33 46 18 25 1007.7 1007.7 4.8
18/05:30pm 14.3 8.4 9.1 71 2.7 SW 30 41 16 22 1007.5 - 4.8
18/05:00pm 14.2 8.1 9.6 74 2.4 SW 32 50 17 27 1007.4 1007.4 4.8
18/04:56pm 14.1 8.3 9.5 74 2.4 SW 30 50 16 27 1007.4 - 4.8
18/04:30pm 14.7 10.1 9.7 72 2.6 SW 24 32 13 17 1007.0 - 4.8
18/04:01pm 15.4 9.1 9.1 66 3.2 SSW 32 52 17 28 1006.7 - 4.8
18/04:00pm 15.4 8.9 9.1 66 3.3 SSW 33 52 18 28 1006.6 1006.6 4.8
18/03:53pm 15.5 9.3 9.2 66 3.3 SSW 32 52 17 28 1006.6 - 4.8
18/03:30pm 15.4 11.7 10.0 70 2.8 SSW 20 41 11 22 1006.4 - 4.8
18/03:00pm 15.1 9.4 9.9 71 2.7 SSW 30 48 16 26 1006.3 1006.3 4.8
18/02:58pm 15.2 9.7 10.4 73 2.5 SSW 30 48 16 26 1006.3 - 4.8
18/02:30pm 15.4 11.6 11.2 76 2.3 SSW 22 32 12 17 1006.1 - 4.8

Latest Capital City Observations: Canberra | Sydney | Melbourne | Brisbane | Adelaide | Perth | Hobart | Darwin

Other Formats:

Comma delimited format used in spreadsheet applications
http://www.bom.gov.au/fwo/IDN60901/IDN60901.94752.axf

JavaScript Object Notation format (JSON) in row-major order
http://www.bom.gov.au/fwo/IDN60901/IDN60901.94752.json